Time;durP1;ratioP1;P1;durP2;ratioP2;P2;SDS_P1;SDS_P2;PMS_P1;PMS_P2;Temp;Humidity;BMP_temperature;BMP_pressure;BME280_temperature;BME280_humidity;BME280_pressure;Samples;Min_cycle;Max_cycle;Signal;HPM_P1;HPM_P2
2022/07/23 00:01:02;;;;;;;2.40;2.30;;;;;;;19.28;54.40;101564.91;4950814;28;97192;-50
2022/07/23 00:03:28;;;;;;;3.63;2.60;;;;;;;19.22;54.34;101572.59;4954939;28;96997;-49
2022/07/23 00:05:53;;;;;;;4.07;2.20;;;;;;;19.17;54.27;101573.44;4953374;28;97134;-49
2022/07/23 00:08:18;;;;;;;7.73;2.30;;;;;;;19.15;54.25;101572.47;4955541;28;96885;-49
2022/07/23 00:10:44;;;;;;;2.13;2.00;;;;;;;19.10;54.29;101585.22;4953472;28;97504;-50
2022/07/23 00:13:09;;;;;;;2.73;2.40;;;;;;;19.07;54.47;101585.50;4957355;28;96932;-50
2022/07/23 00:15:35;;;;;;;2.60;2.23;;;;;;;19.02;54.33;101589.91;4954683;28;96910;-50
2022/07/23 00:18:00;;;;;;;3.20;2.40;;;;;;;18.95;54.34;101581.38;4962143;28;97116;-50
2022/07/23 00:20:25;;;;;;;2.70;2.20;;;;;;;18.89;54.63;101572.34;4958705;28;97173;-49
2022/07/23 00:22:54;;;;;;;2.50;2.27;;;;;;;18.86;54.43;101570.59;4953710;28;97145;-49
2022/07/23 00:25:22;;;;;;;4.03;2.30;;;;;;;18.78;54.57;101573.25;4948614;28;96996;-50
2022/07/23 00:27:47;;;;;;;2.50;2.30;;;;;;;18.73;54.50;101574.06;4957583;28;97558;-50
2022/07/23 00:30:13;;;;;;;2.57;2.47;;;;;;;18.67;54.74;101576.91;4952145;28;96987;-50
2022/07/23 00:32:45;;;;;;;2.57;2.37;;;;;;;18.64;54.92;101580.00;4954281;28;97401;-49
2022/07/23 00:35:11;;;;;;;2.43;2.23;;;;;;;18.60;54.85;101580.31;4954813;28;96964;-49
2022/07/23 00:37:36;;;;;;;3.17;2.53;;;;;;;18.56;54.67;101573.53;4977505;22;97238;-47
2022/07/23 00:40:01;;;;;;;2.73;2.53;;;;;;;18.52;54.76;101571.03;5001897;28;97108;-47
2022/07/23 00:42:27;;;;;;;2.30;2.10;;;;;;;18.48;54.73;101578.16;5003549;28;97081;-48
2022/07/23 00:44:52;;;;;;;2.93;2.47;;;;;;;18.42;54.67;101569.88;5003833;28;107956;-47
2022/07/23 00:47:17;;;;;;;2.77;2.57;;;;;;;18.38;54.77;101574.97;5004933;28;96825;-47
2022/07/23 00:49:43;;;;;;;3.83;2.50;;;;;;;18.32;54.96;101577.09;5022599;28;97164;-48
2022/07/23 00:52:08;;;;;;;3.00;2.80;;;;;;;18.28;54.89;101573.06;5020635;28;97096;-47
2022/07/23 00:54:33;;;;;;;2.80;2.20;;;;;;;18.22;54.96;101575.16;5022233;28;97005;-48
2022/07/23 00:56:59;;;;;;;2.93;2.73;;;;;;;18.21;55.07;101587.59;5022509;28;97992;-47
2022/07/23 00:59:24;;;;;;;2.60;2.40;;;;;;;18.19;55.12;101579.75;5018813;28;98307;-47
2022/07/23 01:01:50;;;;;;;3.00;2.70;;;;;;;18.15;55.07;101584.13;5022559;28;96999;-47
2022/07/23 01:04:16;;;;;;;7.47;2.60;;;;;;;18.11;55.02;101587.16;5024307;28;97430;-48
2022/07/23 01:06:43;;;;;;;3.30;2.33;;;;;;;18.09;55.17;101586.19;5021013;28;97339;-47
2022/07/23 01:09:08;;;;;;;2.33;2.23;;;;;;;18.05;55.04;101571.78;5022382;28;100239;-47
2022/07/23 01:11:35;;;;;;;2.77;2.57;;;;;;;18.00;55.06;101580.97;5019206;28;97801;-46
2022/07/23 01:14:08;;;;;;;2.63;2.50;;;;;;;17.98;55.41;101582.25;5019008;28;96883;-47
2022/07/23 01:16:34;;;;;;;3.10;2.73;;;;;;;17.91;55.09;101574.47;5019181;28;98651;-47
2022/07/23 01:18:59;;;;;;;5.57;2.63;;;;;;;17.86;55.09;101569.72;5022119;28;96904;-47
2022/07/23 01:21:24;;;;;;;2.80;2.60;;;;;;;17.82;55.16;101569.22;5023675;28;97050;-47
2022/07/23 01:23:50;;;;;;;2.83;2.53;;;;;;;17.78;55.14;101565.97;5019654;28;97105;-47
2022/07/23 01:26:16;;;;;;;3.47;3.13;;;;;;;17.77;55.16;101556.13;5022590;28;97423;-47
2022/07/23 01:28:43;;;;;;;2.80;2.33;;;;;;;17.67;55.13;101557.72;5021921;28;97310;-47
2022/07/23 01:31:08;;;;;;;2.73;2.47;;;;;;;17.61;55.38;101547.91;5021775;28;97579;-48
2022/07/23 01:33:33;;;;;;;2.50;2.30;;;;;;;17.58;55.35;101549.72;5022878;28;96947;-47
2022/07/23 01:35:59;;;;;;;2.67;2.47;;;;;;;17.56;55.34;101545.97;5022298;28;97626;-47
2022/07/23 01:38:24;;;;;;;3.03;2.43;;;;;;;17.50;55.45;101543.22;5020945;28;97181;-47
2022/07/23 01:40:49;;;;;;;3.57;3.00;;;;;;;17.46;55.49;101536.38;5021220;27;97070;-47
2022/07/23 01:43:15;;;;;;;4.70;2.93;;;;;;;17.39;55.47;101534.16;5020745;28;96957;-47
2022/07/23 01:45:41;;;;;;;2.90;2.40;;;;;;;17.39;55.68;101540.50;5020924;28;97024;-48
2022/07/23 01:48:07;;;;;;;3.60;2.57;;;;;;;17.39;55.48;101532.16;5020802;28;98784;-47
2022/07/23 01:50:32;;;;;;;2.73;2.53;;;;;;;17.38;55.58;101533.44;5021297;28;97063;-47
2022/07/23 01:52:57;;;;;;;2.70;2.53;;;;;;;17.37;55.55;101545.06;5022628;28;97027;-47
2022/07/23 01:55:23;;;;;;;4.73;3.03;;;;;;;17.38;55.66;101541.00;5021864;28;97318;-47
2022/07/23 01:57:48;;;;;;;3.13;2.53;;;;;;;17.39;55.68;101553.63;5021966;28;97380;-47
2022/07/23 02:00:14;;;;;;;2.20;2.10;;;;;;;17.39;55.60;101559.97;5022469;28;97148;-48
2022/07/23 02:02:39;;;;;;;3.13;2.43;;;;;;;17.40;55.58;101561.47;5016818;28;97116;-46
2022/07/23 02:05:05;;;;;;;2.20;2.10;;;;;;;17.40;55.71;101555.16;5024359;27;97409;-47
2022/07/23 02:07:30;;;;;;;2.53;2.43;;;;;;;17.34;55.50;101544.09;5026089;28;102109;-46
2022/07/23 02:09:55;;;;;;;2.70;2.50;;;;;;;17.28;55.71;101543.34;5026991;28;97190;-47
2022/07/23 02:12:21;;;;;;;2.40;2.23;;;;;;;17.27;55.76;101553.00;5025398;28;96855;-46
2022/07/23 02:14:46;;;;;;;2.20;2.10;;;;;;;17.28;55.79;101554.47;5024166;28;97351;-47
2022/07/23 02:17:11;;;;;;;3.90;2.20;;;;;;;17.29;55.74;101550.44;5023845;28;97302;-47
2022/07/23 02:19:36;;;;;;;2.13;2.03;;;;;;;17.30;55.71;101551.94;5025560;27;97221;-46
2022/07/23 02:22:02;;;;;;;2.30;2.20;;;;;;;17.30;55.85;101545.63;5023769;28;99495;-47
2022/07/23 02:24:27;;;;;;;2.17;2.07;;;;;;;17.31;55.74;101538.78;5025802;28;97818;-46
2022/07/23 02:26:52;;;;;;;2.87;2.00;;;;;;;17.27;55.90;101535.53;5024661;28;97136;-47
2022/07/23 02:29:18;;;;;;;2.57;2.37;;;;;;;17.22;55.96;101532.28;5025011;28;96940;-46
2022/07/23 02:31:43;;;;;;;3.20;2.70;;;;;;;17.22;56.05;101539.88;5026008;28;97285;-46
2022/07/23 02:34:11;;;;;;;4.33;2.40;;;;;;;17.23;55.94;101535.81;5026534;28;97269;-46
2022/07/23 02:36:36;;;;;;;2.80;2.37;;;;;;;17.24;55.90;101538.09;5025385;28;96821;-47
2022/07/23 02:39:02;;;;;;;2.20;2.10;;;;;;;17.24;56.08;101537.31;5023344;28;96802;-46
2022/07/23 02:41:27;;;;;;;2.00;1.90;;;;;;;17.23;55.73;101530.25;5025974;28;97925;-46
2022/07/23 02:43:52;;;;;;;3.00;2.77;;;;;;;17.16;56.02;101525.25;5024202;28;97314;-46
2022/07/23 02:46:18;;;;;;;2.53;2.37;;;;;;;17.11;56.13;101526.03;5024150;28;96950;-47
2022/07/23 02:48:43;;;;;;;3.93;2.77;;;;;;;17.10;56.22;101527.34;5024613;28;96701;-46
2022/07/23 02:51:08;;;;;;;3.70;3.10;;;;;;;17.10;56.05;101527.34;5022859;27;97013;-46
2022/07/23 02:53:34;;;;;;;3.60;2.40;;;;;;;17.12;56.24;101533.13;5025286;28;97393;-47
2022/07/23 02:55:59;;;;;;;2.40;2.30;;;;;;;17.14;56.23;101527.81;5025142;28;97085;-46
2022/07/23 02:58:26;;;;;;;2.60;2.40;;;;;;;17.16;56.32;101531.56;5024098;28;96995;-45
2022/07/23 03:00:52;;;;;;;2.53;2.43;;;;;;;17.17;56.26;101535.09;5025548;28;97055;-46
2022/07/23 03:03:17;;;;;;;3.10;2.90;;;;;;;17.20;56.38;101525.72;5025240;28;101248;-46
2022/07/23 03:05:43;;;;;;;2.57;2.07;;;;;;;17.20;56.38;101526.50;5022065;28;112696;-46
2022/07/23 03:08:08;;;;;;;2.13;2.03;;;;;;;17.18;56.39;101520.69;5020895;28;97399;-47
2022/07/23 03:10:33;;;;;;;2.57;2.37;;;;;;;17.15;56.36;101512.59;5024696;28;96846;-47
2022/07/23 03:12:59;;;;;;;2.07;1.97;;;;;;;17.15;56.62;101513.38;5022525;28;96861;-46
2022/07/23 03:15:24;;;;;;;2.20;2.00;;;;;;;17.15;56.65;101499.47;5021760;27;96950;-46
2022/07/23 03:17:49;;;;;;;2.30;2.20;;;;;;;17.12;56.68;101502.53;5023506;28;97151;-46
2022/07/23 03:20:15;;;;;;;2.60;2.40;;;;;;;17.14;56.64;101503.53;5023251;28;96854;-46
2022/07/23 03:22:40;;;;;;;2.60;2.40;;;;;;;17.14;56.69;101506.31;5023990;28;98267;-51
2022/07/23 03:25:06;;;;;;;2.50;2.30;;;;;;;17.14;56.85;101506.31;5025132;28;96922;-46
2022/07/23 03:27:31;;;;;;;2.90;1.83;;;;;;;17.15;56.97;101507.06;5024561;28;97074;-45
2022/07/23 03:29:58;;;;;;;2.10;2.00;;;;;;;17.17;56.87;101508.03;5024510;27;96839;-46
2022/07/23 03:32:24;;;;;;;2.47;2.30;;;;;;;17.19;56.88;101516.63;5024956;28;104134;-46
2022/07/23 03:34:50;;;;;;;2.50;2.40;;;;;;;17.22;56.92;101512.81;5026032;28;97769;-46
2022/07/23 03:37:16;;;;;;;2.90;2.60;;;;;;;17.21;56.92;101516.84;5017434;28;96614;-46
2022/07/23 03:39:42;;;;;;;4.97;2.90;;;;;;;17.21;57.22;101502.22;5021989;28;96960;-46
2022/07/23 03:42:09;;;;;;;3.17;2.83;;;;;;;17.18;57.13;101497.69;5019192;28;97378;-46
2022/07/23 03:44:36;;;;;;;2.07;1.93;;;;;;;17.17;57.28;101502.47;5023613;28;97571;-45
2022/07/23 03:47:03;;;;;;;2.63;2.53;;;;;;;17.16;57.31;101483.53;5021879;28;97172;-48
2022/07/23 03:49:28;;;;;;;2.47;2.07;;;;;;;17.07;57.23;101462.38;5024763;28;97078;-46
2022/07/23 03:51:54;;;;;;;2.43;2.23;;;;;;;17.01;57.66;101480.38;5018381;28;96939;-47
2022/07/23 03:54:19;;;;;;;3.13;2.27;;;;;;;16.99;57.84;101469.03;5022607;28;97158;-46
2022/07/23 03:56:44;;;;;;;2.80;2.60;;;;;;;17.00;57.82;101481.63;5022288;28;97002;-46
2022/07/23 03:59:10;;;;;;;2.37;2.17;;;;;;;17.05;57.82;101491.97;5024510;28;96902;-45
2022/07/23 04:01:35;;;;;;;2.43;2.23;;;;;;;17.07;57.86;101492.22;5023764;28;96862;-46
2022/07/23 04:04:02;;;;;;;2.50;2.30;;;;;;;17.08;57.89;101496.50;5020970;28;97260;-45
2022/07/23 04:06:27;;;;;;;2.23;2.13;;;;;;;17.09;57.92;101512.66;5020071;28;97346;-46
2022/07/23 04:08:53;;;;;;;2.60;2.40;;;;;;;17.15;57.84;101520.94;5017490;28;97111;-46
2022/07/23 04:11:18;;;;;;;2.00;1.90;;;;;;;17.18;57.94;101528.28;5024982;28;97477;-46
2022/07/23 04:13:43;;;;;;;2.47;2.37;;;;;;;17.22;57.97;101534.31;5024765;28;96892;-46
2022/07/23 04:16:09;;;;;;;2.77;2.63;;;;;;;17.27;58.07;101550.19;5023322;28;96727;-46
2022/07/23 04:18:34;;;;;;;2.07;1.97;;;;;;;17.30;58.15;101551.94;5021922;28;96866;-45
2022/07/23 04:21:00;;;;;;;4.07;2.23;;;;;;;17.33;58.11;101555.72;5022200;28;96916;-46
2022/07/23 04:23:25;;;;;;;2.27;2.17;;;;;;;17.36;58.20;101552.66;5021350;28;97334;-46
2022/07/23 04:25:51;;;;;;;2.53;2.43;;;;;;;17.40;58.19;101553.13;5019684;28;96961;-46
2022/07/23 04:28:16;;;;;;;2.27;2.17;;;;;;;17.43;58.34;101548.56;5020829;28;97323;-46
2022/07/23 04:30:41;;;;;;;2.30;2.20;;;;;;;17.45;58.30;101555.09;5020502;28;97293;-46
2022/07/23 04:33:07;;;;;;;3.90;2.93;;;;;;;17.47;58.38;101547.00;5022670;28;96959;-46
2022/07/23 04:35:33;;;;;;;2.80;2.60;;;;;;;17.50;58.38;101546.00;5024705;28;97134;-45
2022/07/23 04:37:59;;;;;;;2.73;2.53;;;;;;;17.51;58.34;101543.97;5021919;27;96923;-46
2022/07/23 04:40:25;;;;;;;3.13;2.83;;;;;;;17.48;58.57;101539.41;5022084;28;97565;-45
2022/07/23 04:42:50;;;;;;;2.27;2.07;;;;;;;17.46;58.64;101539.16;5024243;28;97580;-48
2022/07/23 04:45:15;;;;;;;2.40;2.30;;;;;;;17.49;58.58;101543.72;5023871;28;97004;-46
2022/07/23 04:47:41;;;;;;;2.27;2.07;;;;;;;17.52;58.58;101548.25;5024101;28;97213;-46
2022/07/23 04:50:06;;;;;;;2.87;2.73;;;;;;;17.53;58.52;101547.75;5022145;28;97320;-47
2022/07/23 04:52:32;;;;;;;2.83;2.63;;;;;;;17.54;58.60;101540.16;5021533;28;98364;-46
2022/07/23 04:54:57;;;;;;;2.93;2.73;;;;;;;17.54;58.71;101543.69;5023326;28;97067;-46
2022/07/23 04:57:22;;;;;;;2.87;2.67;;;;;;;17.55;58.71;101550.75;5022350;28;97862;-46
2022/07/23 04:59:48;;;;;;;2.33;2.20;;;;;;;17.56;58.73;101546.69;5018548;27;97258;-47
2022/07/23 05:02:13;;;;;;;3.00;2.80;;;;;;;17.57;58.68;101551.00;5022290;28;96803;-46
2022/07/23 05:04:38;;;;;;;2.43;2.33;;;;;;;17.58;58.61;101555.28;5024976;28;97008;-46
2022/07/23 05:07:04;;;;;;;3.70;2.60;;;;;;;17.60;58.86;101560.34;5022604;28;97348;-45
2022/07/23 05:09:29;;;;;;;2.70;2.50;;;;;;;17.58;58.80;101555.28;5024104;28;97376;-46
2022/07/23 05:11:54;;;;;;;2.63;2.43;;;;;;;17.59;58.82;101556.78;5015477;28;96994;-46
2022/07/23 05:14:20;;;;;;;2.77;2.63;;;;;;;17.58;58.65;101549.72;5023804;28;96939;-46
2022/07/23 05:16:45;;;;;;;2.40;2.30;;;;;;;17.59;58.92;101547.69;5023121;28;97229;-46
2022/07/23 05:19:10;;;;;;;3.10;2.80;;;;;;;17.62;58.94;101555.00;5018696;28;97436;-46
2022/07/23 05:21:35;;;;;;;3.53;3.23;;;;;;;17.66;58.89;101556.22;5022348;28;113472;-47
2022/07/23 05:24:01;;;;;;;3.03;2.83;;;;;;;17.69;58.84;101535.69;5018646;28;99088;-46
2022/07/23 05:26:26;;;;;;;2.70;2.53;;;;;;;17.71;58.84;101540.75;5022084;28;96862;-46
2022/07/23 05:28:52;;;;;;;2.93;2.40;;;;;;;17.68;58.93;101547.34;5022065;28;96964;-46
2022/07/23 05:31:18;;;;;;;4.10;2.50;;;;;;;17.70;58.93;101544.81;5019369;28;96740;-46
2022/07/23 05:33:43;;;;;;;4.93;3.00;;;;;;;17.73;59.01;101550.09;5021246;28;96845;-46
2022/07/23 05:36:09;;;;;;;2.63;2.37;;;;;;;17.75;59.01;101550.34;5021776;28;97023;-46
2022/07/23 05:38:35;;;;;;;2.80;2.63;;;;;;;17.80;59.10;101559.91;5023025;27;98496;-47
2022/07/23 05:41:00;;;;;;;2.43;2.33;;;;;;;17.84;59.14;101558.31;5026889;28;97687;-47
2022/07/23 05:43:26;;;;;;;2.90;2.70;;;;;;;17.89;59.16;101560.31;5026247;28;96677;-46
2022/07/23 05:45:51;;;;;;;2.83;2.63;;;;;;;17.93;59.10;101557.25;5027091;28;97118;-46
2022/07/23 05:48:17;;;;;;;3.50;3.30;;;;;;;17.98;59.31;101559.97;5021780;28;96850;-47
2022/07/23 05:50:42;;;;;;;2.50;2.40;;;;;;;18.04;59.16;101556.38;5023305;28;100225;-46
2022/07/23 05:53:07;;;;;;;3.83;3.53;;;;;;;18.09;59.30;101567.44;5025913;28;97139;-47
2022/07/23 05:55:33;;;;;;;3.30;3.10;;;;;;;18.17;59.38;101562.06;5026932;28;97264;-46
2022/07/23 05:57:59;;;;;;;3.13;2.93;;;;;;;18.23;59.26;101573.88;5023150;28;96811;-46
2022/07/23 06:00:25;;;;;;;3.20;2.90;;;;;;;18.29;59.39;101589.25;5026178;28;97086;-46
2022/07/23 06:02:50;;;;;;;4.00;3.70;;;;;;;18.36;59.60;101571.19;5026154;28;96949;-46
2022/07/23 06:05:16;;;;;;;3.47;3.17;;;;;;;18.41;59.43;101573.91;5027044;28;96878;-46
2022/07/23 06:07:41;;;;;;;5.27;3.40;;;;;;;18.48;59.59;101575.38;5026494;28;97400;-46
2022/07/23 06:10:08;;;;;;;3.50;3.30;;;;;;;18.54;59.60;101587.25;5025754;28;96945;-47
2022/07/23 06:12:33;;;;;;;3.83;3.50;;;;;;;18.57;59.59;101577.81;5027812;28;97004;-46
2022/07/23 06:14:58;;;;;;;3.80;3.50;;;;;;;18.57;59.56;101577.81;5025059;27;96908;-46
2022/07/23 06:17:24;;;;;;;3.50;3.20;;;;;;;18.63;59.67;101579.25;5022048;28;97570;-46
2022/07/23 06:19:49;;;;;;;3.37;3.17;;;;;;;18.70;59.60;101578.66;5023110;28;97450;-46
2022/07/23 06:22:15;;;;;;;2.97;2.77;;;;;;;18.78;59.84;101581.63;5017440;28;96895;-47
2022/07/23 06:24:40;;;;;;;2.87;2.63;;;;;;;18.82;59.63;101578.50;5020654;28;97415;-47
2022/07/23 06:27:05;;;;;;;2.77;2.60;;;;;;;18.91;59.73;101587.25;5021875;28;97112;-46
2022/07/23 06:29:31;;;;;;;3.80;3.40;;;;;;;19.02;59.64;101591.94;5023602;28;112874;-46
2022/07/23 06:31:56;;;;;;;2.77;2.57;;;;;;;19.11;59.75;101583.91;5025913;28;97560;-46
2022/07/23 06:34:21;;;;;;;4.20;2.90;;;;;;;19.20;59.61;101585.56;5008325;28;96893;-47
2022/07/23 06:36:47;;;;;;;4.30;2.10;;;;;;;19.31;59.58;101575.00;5022895;28;98556;-48
2022/07/23 06:39:12;;;;;;;6.53;2.60;;;;;;;19.39;59.41;101586.34;5022766;27;96932;-47
2022/07/23 06:41:37;;;;;;;2.57;2.33;;;;;;;19.43;59.46;101586.78;5022565;28;96903;-46
2022/07/23 06:44:03;;;;;;;2.40;2.27;;;;;;;19.47;59.49;101578.06;5025268;28;96700;-46
2022/07/23 06:46:29;;;;;;;3.03;2.40;;;;;;;19.46;59.51;101580.13;5025865;28;97380;-46
2022/07/23 06:48:54;;;;;;;3.17;2.87;;;;;;;19.45;59.44;101589.78;5024050;28;97458;-46
2022/07/23 06:51:19;;;;;;;3.57;2.43;;;;;;;19.51;59.50;101590.44;5022297;27;97317;-46
2022/07/23 06:53:45;;;;;;;2.23;2.03;;;;;;;19.55;59.49;101588.09;5022714;28;96958;-46
2022/07/23 06:56:10;;;;;;;4.50;1.93;;;;;;;19.61;59.55;101585.22;5025693;28;99655;-46
2022/07/23 06:58:35;;;;;;;2.67;2.47;;;;;;;19.67;59.60;101583.84;5022560;28;97331;-46
2022/07/23 07:01:01;;;;;;;2.53;2.30;;;;;;;19.75;59.41;101592.31;5020997;28;97149;-46
2022/07/23 07:03:26;;;;;;;2.80;1.97;;;;;;;19.79;59.27;101587.94;5023332;28;96847;-46
2022/07/23 07:05:52;;;;;;;4.17;2.30;;;;;;;19.85;59.41;101585.06;5026035;28;96896;-46
2022/07/23 07:08:18;;;;;;;1.80;1.70;;;;;;;19.95;59.62;101597.31;5024134;28;96926;-46
2022/07/23 07:10:44;;;;;;;2.83;1.97;;;;;;;20.09;59.22;101593.25;5025432;28;96763;-47
2022/07/23 07:13:09;;;;;;;3.40;1.97;;;;;;;20.16;59.00;101592.59;5023465;28;96846;-46
2022/07/23 07:15:35;;;;;;;2.10;1.80;;;;;;;20.20;58.83;101604.22;5020934;28;97088;-47
2022/07/23 07:18:00;;;;;;;2.67;1.80;;;;;;;20.22;58.63;101600.91;5018144;28;98426;-47
2022/07/23 07:20:25;;;;;;;1.93;1.70;;;;;;;20.23;58.86;101596.81;5023736;28;97376;-48
2022/07/23 07:22:51;;;;;;;5.43;2.10;;;;;;;20.28;58.68;101605.09;5023894;28;96938;-46
2022/07/23 07:25:17;;;;;;;2.20;1.80;;;;;;;20.30;58.78;101599.72;5024615;27;97464;-47
2022/07/23 07:27:43;;;;;;;2.20;2.00;;;;;;;20.29;58.85;101594.69;5022552;27;96937;-48
2022/07/23 07:30:10;;;;;;;2.10;2.00;;;;;;;20.34;59.13;101594.56;5020891;28;97402;-47
2022/07/23 07:32:36;;;;;;;1.33;1.23;;;;;;;20.44;58.94;101594.91;4992756;28;97007;-46
2022/07/23 07:35:03;;;;;;;1.30;1.30;;;;;;;20.57;58.95;101595.66;5019861;28;97501;-46
2022/07/23 07:37:29;;;;;;;1.53;1.43;;;;;;;20.73;58.58;101596.56;5021267;28;97046;-47
2022/07/23 07:39:54;;;;;;;2.07;1.73;;;;;;;20.80;58.36;101607.09;5024374;28;97283;-48
2022/07/23 07:42:20;;;;;;;1.60;1.50;;;;;;;20.79;57.95;101606.34;5025259;28;97055;-46
2022/07/23 07:44:45;;;;;;;2.57;1.63;;;;;;;20.79;57.87;101595.16;5005988;28;97021;-46
2022/07/23 07:47:10;;;;;;;1.80;1.50;;;;;;;20.74;58.00;101607.22;5020716;28;102446;-48
2022/07/23 07:49:36;;;;;;;3.50;2.00;;;;;;;20.72;58.15;101603.47;5021537;28;96986;-48
2022/07/23 07:52:01;;;;;;;1.80;1.70;;;;;;;20.74;58.27;101607.22;5021458;28;98106;-46
2022/07/23 07:54:26;;;;;;;1.90;1.60;;;;;;;20.79;57.95;101606.34;5022486;28;97294;-47
2022/07/23 07:56:52;;;;;;;2.20;1.50;;;;;;;20.96;57.65;101602.44;5020930;28;97666;-46
2022/07/23 07:59:17;;;;;;;1.60;1.50;;;;;;;21.06;57.19;101607.06;5025058;28;97370;-49
2022/07/23 08:01:42;;;;;;;1.87;1.70;;;;;;;21.08;56.96;101610.06;5025556;27;97395;-48
2022/07/23 08:04:08;;;;;;;2.80;1.30;;;;;;;21.16;57.01;101615.75;5021403;28;101678;-46
2022/07/23 08:06:33;;;;;;;2.97;1.60;;;;;;;21.23;56.79;101610.22;5021905;28;106850;-47
2022/07/23 08:08:58;;;;;;;1.67;1.57;;;;;;;21.32;56.56;101623.00;5024854;28;96854;-47
2022/07/23 08:11:24;;;;;;;1.70;1.60;;;;;;;21.35;56.45;101605.13;5024704;28;97083;-47
2022/07/23 08:13:50;;;;;;;5.43;2.10;;;;;;;21.31;56.42;101605.47;5025184;28;97464;-46
2022/07/23 08:16:15;;;;;;;1.87;1.73;;;;;;;21.41;56.33;101614.16;5023500;28;97361;-46
2022/07/23 08:18:41;;;;;;;2.33;2.17;;;;;;;21.46;56.21;101608.44;5022991;28;97204;-46
2022/07/23 08:21:06;;;;;;;2.93;2.20;;;;;;;21.50;56.19;101611.63;5022156;28;96788;-46
2022/07/23 08:23:32;;;;;;;2.20;2.00;;;;;;;21.53;55.92;101618.19;5021221;28;97307;-48
2022/07/23 08:25:59;;;;;;;5.00;2.27;;;;;;;21.51;55.59;101618.00;5019149;28;106404;-46
2022/07/23 08:28:24;;;;;;;2.13;1.97;;;;;;;21.49;55.53;101624.13;5020921;28;96783;-47
2022/07/23 08:30:50;;;;;;;2.03;1.73;;;;;;;21.56;55.57;101622.69;5020459;28;96821;-46
2022/07/23 08:33:16;;;;;;;2.30;2.00;;;;;;;21.69;55.40;101622.63;5024673;28;98316;-47
2022/07/23 08:35:47;;;;;;;1.57;1.47;;;;;;;21.85;54.93;101615.88;5024386;27;98715;-46
2022/07/23 08:38:15;;;;;;;2.10;1.50;;;;;;;22.04;54.43;101613.59;5018704;27;97868;-48
2022/07/23 08:40:45;;;;;;;2.13;1.40;;;;;;;22.22;54.05;101617.47;5017918;27;96890;-47
2022/07/23 08:43:12;;;;;;;1.43;1.33;;;;;;;22.31;53.58;101626.13;5023610;28;97200;-46
2022/07/23 08:45:40;;;;;;;1.53;1.30;;;;;;;22.29;53.52;101622.38;5020482;27;96968;-46
2022/07/23 08:48:11;;;;;;;5.00;1.47;;;;;;;22.24;53.22;101632.44;5022435;28;97224;-48
2022/07/23 08:50:37;;;;;;;2.83;1.73;;;;;;;22.17;53.64;101633.13;5019275;28;96893;-47
2022/07/23 08:53:05;;;;;;;2.20;1.40;;;;;;;22.13;53.69;101626.38;5020690;27;97147;-47
2022/07/23 08:55:31;;;;;;;3.90;1.43;;;;;;;22.28;53.62;101632.06;5021574;28;96763;-46
2022/07/23 08:57:56;;;;;;;1.27;1.10;;;;;;;22.51;53.34;101621.00;5022024;28;96974;-47
2022/07/23 09:00:22;;;;;;;1.43;0.80;;;;;;;22.73;52.58;101621.16;5021091;28;96925;-46
2022/07/23 09:02:49;;;;;;;1.17;0.90;;;;;;;22.91;52.04;101627.78;5018970;28;97163;-46
2022/07/23 09:05:15;;;;;;;1.10;0.87;;;;;;;22.90;51.39;101629.06;5021455;28;99053;-47
2022/07/23 09:08:12;;;;;;;0.70;0.70;;;;;;;22.79;50.49;101630.16;5019252;28;97084;-48
2022/07/23 09:10:46;;;;;;;1.07;0.80;;;;;;;22.70;51.30;101622.25;5020889;27;96785;-44
2022/07/23 09:13:33;;;;;;;0.80;0.80;;;;;;;22.61;50.86;101627.63;5020982;28;101354;-46
2022/07/23 09:16:19;;;;;;;1.47;0.83;;;;;;;22.68;50.70;101624.13;5021938;28;102770;-45
2022/07/23 09:19:01;;;;;;;2.10;0.70;;;;;;;22.86;50.80;101628.69;5019018;28;97341;-46
2022/07/23 09:21:28;;;;;;;1.43;0.70;;;;;;;22.98;50.92;101635.47;5021599;28;97388;-46
2022/07/23 09:24:02;;;;;;;1.80;0.97;;;;;;;23.10;50.42;101631.78;5020508;28;97405;-47
2022/07/23 09:26:33;;;;;;;1.03;0.90;;;;;;;23.23;49.76;101625.25;5018934;28;100450;-46
2022/07/23 09:29:05;;;;;;;0.90;0.60;;;;;;;23.37;49.48;101623.06;5022516;28;97035;-46
2022/07/23 09:32:02;;;;;;;1.37;0.80;;;;;;;23.59;48.08;101625.91;5020785;28;96837;-46
2022/07/23 09:34:33;;;;;;;0.97;0.63;;;;;;;23.77;49.21;101627.59;5013148;28;101829;-45
2022/07/23 09:37:19;;;;;;;2.17;0.73;;;;;;;23.85;47.46;101633.97;5018063;28;97228;-48
2022/07/23 09:39:47;;;;;;;1.03;0.60;;;;;;;23.82;48.54;101635.09;5020347;28;98390;-46
2022/07/23 09:42:16;;;;;;;0.67;0.63;;;;;;;23.87;48.93;101629.84;5019747;28;97355;-47
2022/07/23 09:44:44;;;;;;;1.53;0.80;;;;;;;24.06;48.47;101627.44;5022119;27;97149;-46
2022/07/23 09:47:09;;;;;;;2.80;0.73;;;;;;;24.26;48.35;101623.66;5015202;28;100896;-46
2022/07/23 09:49:35;;;;;;;1.00;0.60;;;;;;;24.39;47.77;101629.06;5021159;28;97684;-47
2022/07/23 09:52:02;;;;;;;1.90;0.60;;;;;;;24.52;47.44;101614.78;5011752;28;96911;-46
2022/07/23 09:54:39;;;;;;;2.40;0.50;;;;;;;24.54;45.93;101626.22;5023565;28;96905;-47
2022/07/23 09:57:08;;;;;;;1.37;0.53;;;;;;;24.66;46.67;101620.94;5017821;28;98605;-46
2022/07/23 09:59:37;;;;;;;0.77;0.63;;;;;;;24.71;46.47;101625.59;5021382;28;96597;-45
2022/07/23 10:02:05;;;;;;;1.00;0.63;;;;;;;24.87;46.32;101624.25;5020254;28;97060;-45
2022/07/23 10:04:31;;;;;;;2.63;0.70;;;;;;;25.05;46.07;101611.78;5020301;28;97998;-46
2022/07/23 10:06:59;;;;;;;1.40;0.80;;;;;;;25.11;45.48;101621.50;5022878;28;97238;-45
2022/07/23 10:09:28;;;;;;;0.70;0.70;;;;;;;25.22;45.31;101623.88;5020621;22;98121;-49
2022/07/23 10:12:16;;;;;;;2.20;0.60;;;;;;;25.12;44.81;101625.81;4999983;27;96966;-49
2022/07/23 10:14:42;;;;;;;0.70;0.60;;;;;;;25.09;45.42;101626.22;4999231;28;102888;-49
2022/07/23 10:17:08;;;;;;;0.60;0.60;;;;;;;25.06;45.03;101619.66;5002312;28;97236;-50
2022/07/23 10:19:34;;;;;;;1.77;0.77;;;;;;;25.08;45.08;101622.63;5020581;27;97223;-50
2022/07/23 10:22:06;;;;;;;1.37;0.73;;;;;;;25.09;43.99;101626.97;5020460;27;96942;-50
2022/07/23 10:24:55;;;;;;;1.37;0.63;;;;;;;25.03;42.94;101626.41;5019100;27;96919;-50
2022/07/23 10:27:44;;;;;;;0.80;0.47;;;;;;;24.96;42.83;101621.59;5024975;27;103409;-49
2022/07/23 10:30:47;;;;;;;0.90;0.50;;;;;;;25.06;42.97;101618.88;5022755;27;96962;-51
2022/07/23 10:33:56;;;;;;;1.00;0.70;;;;;;;25.12;42.13;101622.22;5021405;27;97980;-49
2022/07/23 10:36:36;;;;;;;0.80;0.50;;;;;;;25.24;42.05;101623.31;4992538;27;103594;-51
2022/07/23 10:39:17;;;;;;;1.00;0.73;;;;;;;25.27;42.52;101622.91;5006684;27;101516;-53
2022/07/23 10:41:43;;;;;;;0.70;0.60;;;;;;;25.41;43.44;101631.06;5023783;27;96932;-50
2022/07/23 10:44:11;;;;;;;0.93;0.63;;;;;;;25.50;42.71;101633.31;4988125;27;97002;-50
2022/07/23 10:49:33;;;;;;;0.70;0.50;;;;;;;25.34;43.10;101632.63;5020449;27;100163;-51
2022/07/23 10:52:13;;;;;;;1.00;0.50;;;;;;;25.50;41.77;101633.31;5022831;27;96971;-51
2022/07/23 10:54:54;;;;;;;0.90;0.70;;;;;;;25.54;41.48;101636.47;5012830;27;97115;-52
2022/07/23 10:57:24;;;;;;;1.20;0.50;;;;;;;25.37;42.35;101631.50;4985477;27;97002;-51
2022/07/23 11:00:14;;;;;;;1.00;0.60;;;;;;;25.35;41.86;101633.38;5011200;27;97159;-50
2022/07/23 11:02:42;;;;;;;0.80;0.50;;;;;;;25.49;42.40;101629.72;5023111;27;96623;-50
2022/07/23 11:05:13;;;;;;;0.63;0.50;;;;;;;25.66;41.00;101629.81;5026146;27;96976;-52
2022/07/23 11:08:03;;;;;;;0.90;0.63;;;;;;;25.83;40.62;101631.94;5013785;27;103127;-50
2022/07/23 11:10:40;;;;;;;0.90;0.50;;;;;;;26.04;40.43;101626.66;5023258;27;100295;-50
2022/07/23 11:13:21;;;;;;;0.60;0.50;;;;;;;26.18;40.18;101618.66;5024364;27;97377;-50
2022/07/23 11:16:02;;;;;;;0.60;0.50;;;;;;;26.32;40.30;101622.66;5023289;27;97222;-50
2022/07/23 11:18:39;;;;;;;1.03;0.40;;;;;;;26.52;38.34;101624.31;5023736;27;101711;-51
2022/07/23 11:21:23;;;;;;;1.03;0.60;;;;;;;26.69;39.45;101627.16;5024819;27;97168;-51
2022/07/23 11:24:06;;;;;;;0.70;0.50;;;;;;;26.81;39.12;101630.97;5023358;27;97152;-51
2022/07/23 11:26:38;;;;;;;0.90;0.40;;;;;;;26.77;39.45;101621.41;5022204;27;97246;-51
2022/07/23 11:29:28;;;;;;;0.60;0.50;;;;;;;26.56;39.03;101622.56;5023035;27;102156;-51